createdAt,value
2022-09-26T00:00:33.596Z,92.32
2022-09-26T00:03:25.522Z,92.42
2022-09-26T00:06:03.187Z,93.05
2022-09-26T00:08:36.443Z,93.12
2022-09-26T00:11:10.532Z,93.54
2022-09-26T00:13:43.816Z,93.58
2022-09-26T00:16:17.860Z,93.99
2022-09-26T00:18:52.938Z,93.94
2022-09-26T00:21:27.003Z,94.08
2022-09-26T00:24:00.898Z,94.20
2022-09-26T00:26:35.332Z,94.50
2022-09-26T00:29:10.055Z,94.85
2022-09-26T00:31:45.685Z,95.49
2022-09-26T00:34:21.626Z,95.39
2022-09-26T00:36:53.899Z,95.33
2022-09-26T00:39:29.490Z,95.11
2022-09-26T00:42:01.849Z,95.19
2022-09-26T00:44:49.345Z,94.89
2022-09-26T00:47:39.494Z,94.75
2022-09-26T00:50:18.325Z,94.61
2022-09-26T00:52:55.962Z,94.72
2022-09-26T00:55:32.329Z,94.84
2022-09-26T00:58:11.395Z,95.04
2022-09-26T01:00:47.892Z,95.42
2022-09-26T01:03:22.041Z,95.31
2022-09-26T01:05:55.190Z,95.77
2022-09-26T01:08:33.414Z,95.68
2022-09-26T01:11:06.121Z,95.84
2022-09-26T01:13:41.341Z,96.25
2022-09-26T01:16:13.773Z,96.22
2022-09-26T01:18:49.737Z,96.22
2022-09-26T01:21:46.122Z,96.31
2022-09-26T01:25:03.321Z,96.27
2022-09-26T01:28:16.999Z,96.50
2022-09-26T01:30:59.767Z,96.77
2022-09-26T01:33:54.919Z,96.99
2022-09-26T01:36:50.968Z,97.18
2022-09-26T01:39:36.253Z,97.47
2022-09-26T01:42:18.461Z,97.78
2022-09-26T01:45:04.620Z,97.98
2022-09-26T01:47:48.789Z,98.10
2022-09-26T01:50:28.778Z,98.17
2022-09-26T01:53:07.287Z,98.15
2022-09-26T01:55:46.810Z,98.57
2022-09-26T01:58:25.333Z,98.45
2022-09-26T02:01:04.101Z,98.38
2022-09-26T02:03:42.937Z,98.67
2022-09-26T02:06:19.998Z,98.79
2022-09-26T02:08:57.921Z,98.79
2022-09-26T02:11:31.444Z,98.75
2022-09-26T02:14:09.138Z,98.78
2022-09-26T02:16:48.678Z,98.78
2022-09-26T02:19:27.126Z,99.14
2022-09-26T02:22:01.433Z,99.13
2022-09-26T02:24:33.616Z,99.06
2022-09-26T02:27:07.554Z,98.89
2022-09-26T02:29:40.787Z,99.08
2022-09-26T02:32:17.273Z,99.13
2022-09-26T02:34:51.656Z,99.57
2022-09-26T02:37:29.200Z,99.36
2022-09-26T02:40:04.088Z,99.41
2022-09-26T02:42:43.774Z,99.47
2022-09-26T02:45:28.092Z,99.46
2022-09-26T02:48:27.619Z,99.74
2022-09-26T02:51:17.043Z,99.47
2022-09-26T02:54:06.725Z,99.43
2022-09-26T02:56:56.185Z,99.43
2022-09-26T02:59:35.196Z,99.33
2022-09-26T03:02:15.983Z,99.11
2022-09-26T03:04:55.403Z,99.18
2022-09-26T03:07:36.438Z,99.14
2022-09-26T03:10:13.278Z,99.11
2022-09-26T03:12:47.837Z,99.32
2022-09-26T03:15:20.913Z,98.91
2022-09-26T03:17:55.969Z,98.85
2022-09-26T03:20:29.401Z,98.99
2022-09-26T03:23:03.118Z,98.56
2022-09-26T03:25:36.910Z,98.54
2022-09-26T03:28:12.480Z,98.57
2022-09-26T03:30:45.065Z,98.53
2022-09-26T03:33:29.252Z,98.65
2022-09-26T03:36:04.875Z,98.78
2022-09-26T03:38:37.215Z,98.67
2022-09-26T03:41:15.749Z,98.53
2022-09-26T03:44:12.894Z,98.47
2022-09-26T03:47:04.471Z,98.59
2022-09-26T03:49:39.092Z,98.40
2022-09-26T03:52:12.827Z,98.66
2022-09-26T03:54:45.468Z,98.22
2022-09-26T03:57:21.148Z,98.28
2022-09-26T03:59:57.841Z,98.29
2022-09-26T04:02:33.764Z,98.47
2022-09-26T04:05:14.491Z,98.38
2022-09-26T04:07:47.347Z,98.18
2022-09-26T04:10:19.976Z,98.22
2022-09-26T04:12:52.099Z,98.39
2022-09-26T04:15:24.598Z,98.43
2022-09-26T04:18:05.912Z,98.54
2022-09-26T04:20:41.179Z,98.41
2022-09-26T04:23:13.645Z,98.49
2022-09-26T04:25:45.812Z,98.46
2022-09-26T04:28:19.682Z,98.39
2022-09-26T04:30:58.373Z,98.78
2022-09-26T04:33:32.702Z,98.71
2022-09-26T04:36:15.139Z,98.89
2022-09-26T04:38:47.419Z,98.74
2022-09-26T04:41:21.880Z,98.93
2022-09-26T04:43:57.123Z,98.96
2022-09-26T04:46:31.586Z,98.96
2022-09-26T04:49:06.130Z,98.80
2022-09-26T04:51:39.288Z,98.73
2022-09-26T04:54:11.989Z,98.73
2022-09-26T04:56:47.359Z,98.80
2022-09-26T04:59:19.768Z,98.81
2022-09-26T05:02:10.158Z,98.76
2022-09-26T05:04:48.364Z,98.92
2022-09-26T05:07:23.609Z,99.06
2022-09-26T05:09:55.673Z,98.92
2022-09-26T05:12:30.895Z,98.93
2022-09-26T05:15:07.616Z,99.29
2022-09-26T05:17:45.514Z,99.65
2022-09-26T05:20:20.487Z,99.61
2022-09-26T05:23:00.764Z,99.90
2022-09-26T05:25:57.669Z,99.86
2022-09-26T05:28:32.058Z,99.83
2022-09-26T05:31:07.534Z,99.90
2022-09-26T05:33:39.963Z,99.94
2022-09-26T05:36:14.508Z,100.00
2022-09-26T05:38:46.850Z,99.97
2022-09-26T05:41:21.141Z,100.00
2022-09-26T05:43:56.624Z,100.00
2022-09-26T05:46:32.045Z,100.00
2022-09-26T05:49:12.059Z,100.00
2022-09-26T05:51:45.259Z,100.00
2022-09-26T05:54:20.274Z,100.00
2022-09-26T05:56:56.436Z,100.00
2022-09-26T05:59:41.747Z,100.00
2022-09-26T06:02:40.595Z,100.00
2022-09-26T06:05:21.976Z,100.00
2022-09-26T06:08:16.632Z,100.00
2022-09-26T06:11:11.017Z,100.00
2022-09-26T06:13:46.022Z,100.00
2022-09-26T06:16:21.032Z,100.00
2022-09-26T06:18:55.924Z,100.00
2022-09-26T06:21:29.959Z,100.00
2022-09-26T06:24:14.271Z,100.00
2022-09-26T06:26:48.145Z,100.00
2022-09-26T06:29:20.988Z,100.00
2022-09-26T06:31:53.907Z,100.00
2022-09-26T06:34:52.415Z,100.00
2022-09-26T06:37:46.502Z,100.00
2022-09-26T06:40:18.927Z,100.00
2022-09-26T06:42:51.027Z,100.00
2022-09-26T06:45:41.785Z,100.00
2022-09-26T06:48:24.582Z,100.00
2022-09-26T06:51:06.885Z,100.00
2022-09-26T06:53:40.187Z,100.00
2022-09-26T06:56:12.616Z,100.00
2022-09-26T06:58:52.135Z,100.00
2022-09-26T07:01:29.207Z,100.00
2022-09-26T07:04:36.026Z,100.00
2022-09-26T07:07:31.231Z,100.00
2022-09-26T07:10:03.595Z,100.00
2022-09-26T07:12:45.081Z,100.00
2022-09-26T07:15:21.953Z,100.00
2022-09-26T07:17:54.141Z,100.00
2022-09-26T07:20:56.650Z,100.00
2022-09-26T07:23:41.719Z,100.00
2022-09-26T07:26:14.397Z,100.00
2022-09-26T07:28:52.174Z,100.00
2022-09-26T07:31:28.660Z,100.00
2022-09-26T07:34:25.230Z,100.00
2022-09-26T07:36:57.770Z,100.00
2022-09-26T07:39:32.479Z,100.00
2022-09-26T07:42:07.476Z,100.00
2022-09-26T07:45:20.465Z,100.00
2022-09-26T07:47:55.820Z,100.00
2022-09-26T07:50:54.203Z,100.00
2022-09-26T07:53:41.849Z,100.00
2022-09-26T07:56:35.548Z,100.00
2022-09-26T07:59:37.053Z,100.00
2022-09-26T08:02:34.133Z,100.00
2022-09-26T08:05:10.130Z,100.00
2022-09-26T08:07:43.846Z,100.00
2022-09-26T08:10:23.409Z,100.00
2022-09-26T08:13:14.340Z,100.00
2022-09-26T08:15:57.420Z,100.00
2022-09-26T08:18:34.517Z,100.00
2022-09-26T08:21:07.659Z,100.00
2022-09-26T08:23:40.174Z,100.00
2022-09-26T08:26:31.530Z,100.00
2022-09-26T08:29:16.630Z,100.00
2022-09-26T08:31:50.399Z,100.00
2022-09-26T08:34:25.500Z,100.00
2022-09-26T08:37:29.084Z,100.00
2022-09-26T08:40:24.582Z,99.85
2022-09-26T08:43:32.967Z,99.92
2022-09-26T08:46:50.167Z,99.17
2022-09-26T08:50:09.757Z,99.62
2022-09-26T08:52:48.279Z,98.98
2022-09-26T08:55:25.164Z,98.37
2022-09-26T08:58:01.187Z,97.28
2022-09-26T09:00:39.217Z,97.00
2022-09-26T09:03:25.967Z,96.51
2022-09-26T09:06:04.801Z,97.14
2022-09-26T09:08:43.388Z,97.60
2022-09-26T09:11:59.476Z,97.13
2022-09-26T09:15:13.681Z,97.16
2022-09-26T09:18:14.646Z,97.98
2022-09-26T09:21:24.751Z,94.87
2022-09-26T09:24:25.191Z,93.71
2022-09-26T09:30:24.905Z,93.01
2022-09-26T09:33:41.585Z,92.01
2022-09-26T09:36:49.494Z,92.34
2022-09-26T09:39:45.395Z,91.82
2022-09-26T09:42:32.627Z,91.98
2022-09-26T09:45:22.438Z,91.87
2022-09-26T09:51:06.007Z,91.50
2022-09-26T09:53:59.362Z,91.34
2022-09-26T09:56:41.908Z,91.63
2022-09-26T09:59:31.674Z,91.47
2022-09-26T10:02:22.171Z,91.37
2022-09-26T10:05:09.159Z,91.39
2022-09-26T10:07:41.854Z,91.06
2022-09-26T10:10:44.264Z,91.70
2022-09-26T10:13:44.680Z,92.26
2022-09-26T10:16:36.629Z,91.62
2022-09-26T10:19:14.130Z,91.45
2022-09-26T10:21:50.615Z,91.17
2022-09-26T10:24:34.475Z,91.30
2022-09-26T10:27:25.424Z,91.40
2022-09-26T10:30:02.003Z,91.27
2022-09-26T10:32:52.780Z,91.07
2022-09-26T10:35:46.171Z,91.21
2022-09-26T10:38:28.796Z,90.79
2022-09-26T10:41:28.529Z,90.48
2022-09-26T10:44:01.581Z,90.64
2022-09-26T10:47:08.370Z,90.67
2022-09-26T10:50:03.516Z,91.02
2022-09-26T10:53:11.024Z,90.91
2022-09-26T10:55:48.689Z,90.24
2022-09-26T10:58:27.810Z,89.81
2022-09-26T11:01:03.559Z,89.14
2022-09-26T11:03:50.013Z,88.40
2022-09-26T11:06:41.540Z,88.58
2022-09-26T11:09:23.642Z,89.20
2022-09-26T11:12:34.445Z,89.18
2022-09-26T11:15:15.983Z,88.83
2022-09-26T11:17:53.478Z,88.05
2022-09-26T11:20:39.029Z,87.49
2022-09-26T11:23:31.713Z,87.03
2022-09-26T11:26:18.275Z,87.53
2022-09-26T11:28:55.101Z,87.59
2022-09-26T11:31:44.370Z,87.81
2022-09-26T11:34:36.252Z,87.77
2022-09-26T11:37:31.877Z,88.03
2022-09-26T11:40:23.862Z,87.33
2022-09-26T11:43:13.662Z,87.70
2022-09-26T11:46:04.330Z,87.23
2022-09-26T11:49:22.989Z,87.21
2022-09-26T11:52:30.622Z,86.96
2022-09-26T11:55:32.303Z,87.15
2022-09-26T11:58:35.220Z,86.83
2022-09-26T12:01:24.387Z,86.24
2022-09-26T12:04:19.463Z,85.95
2022-09-26T12:07:04.752Z,85.78
2022-09-26T12:09:58.113Z,85.27
2022-09-26T12:12:41.563Z,84.56
2022-09-26T12:15:23.693Z,85.14
2022-09-26T12:18:13.809Z,85.16
2022-09-26T12:20:58.076Z,84.80
2022-09-26T12:23:37.789Z,84.55
2022-09-26T12:26:20.723Z,84.86
2022-09-26T12:29:25.089Z,84.85
2022-09-26T12:32:15.908Z,84.77
2022-09-26T12:34:54.591Z,84.39
2022-09-26T12:37:49.248Z,83.55
2022-09-26T12:40:40.923Z,83.79
2022-09-26T12:43:41.805Z,83.75
2022-09-26T12:46:38.584Z,83.84
2022-09-26T12:49:33.156Z,84.23
2022-09-26T12:52:17.519Z,84.39
2022-09-26T12:55:17.059Z,84.28
2022-09-26T12:58:06.122Z,84.39
2022-09-26T13:00:43.055Z,84.66
2022-09-26T13:03:39.807Z,84.27
2022-09-26T13:06:35.930Z,84.46
2022-09-26T13:09:25.593Z,84.66
2022-09-26T13:12:09.751Z,84.32
2022-09-26T13:15:00.892Z,84.34
2022-09-26T13:17:37.273Z,84.35
2022-09-26T13:20:17.597Z,84.45
2022-09-26T13:22:56.702Z,84.72
2022-09-26T13:25:35.743Z,85.26
2022-09-26T13:28:13.599Z,85.70
2022-09-26T13:30:54.905Z,85.82
2022-09-26T13:33:34.498Z,85.75
2022-09-26T13:36:09.449Z,84.83
2022-09-26T13:38:53.547Z,83.99
2022-09-26T13:41:45.766Z,83.66
2022-09-26T13:44:30.659Z,82.79
2022-09-26T13:47:13.647Z,83.30
2022-09-26T13:49:58.917Z,83.93
2022-09-26T13:52:52.480Z,84.22
2022-09-26T13:55:26.478Z,84.52
2022-09-26T13:58:20.096Z,84.83
2022-09-26T14:00:57.799Z,85.29
2022-09-26T14:03:49.527Z,85.72
2022-09-26T14:06:32.228Z,86.52
2022-09-26T14:09:25.184Z,86.91
2022-09-26T14:12:21.600Z,87.16
2022-09-26T14:15:16.251Z,87.11
2022-09-26T14:18:17.497Z,87.26
2022-09-26T14:21:05.623Z,87.64
2022-09-26T14:23:43.944Z,87.81
2022-09-26T14:26:22.314Z,88.30
2022-09-26T14:29:00.086Z,88.14
2022-09-26T14:31:43.460Z,88.48
2022-09-26T14:34:21.698Z,88.95
2022-09-26T14:36:57.690Z,89.00
2022-09-26T14:39:44.621Z,89.05
2022-09-26T14:42:26.783Z,89.31
2022-09-26T14:45:02.534Z,89.24
2022-09-26T14:47:49.269Z,89.43
2022-09-26T14:50:26.304Z,89.84
2022-09-26T14:53:14.968Z,90.10
2022-09-26T14:56:01.040Z,90.06
2022-09-26T14:58:49.850Z,90.41
2022-09-26T15:01:30.080Z,91.03
2022-09-26T15:04:04.197Z,91.26
2022-09-26T15:06:47.579Z,91.24
2022-09-26T15:09:26.421Z,91.49
2022-09-26T15:12:03.546Z,91.84
2022-09-26T15:14:43.391Z,91.71
2022-09-26T15:17:23.500Z,92.14
2022-09-26T15:20:00.238Z,92.46
2022-09-26T15:22:35.405Z,92.56
2022-09-26T15:25:22.294Z,92.71
2022-09-26T15:27:56.754Z,92.71
2022-09-26T15:30:37.516Z,92.44
2022-09-26T15:33:18.763Z,92.64
2022-09-26T15:35:57.700Z,93.08
2022-09-26T15:38:30.569Z,93.34
2022-09-26T15:41:05.173Z,93.17
2022-09-26T15:43:38.716Z,93.37
2022-09-26T15:46:24.456Z,93.52
2022-09-26T15:48:57.435Z,93.66
2022-09-26T15:51:38.213Z,93.95
2022-09-26T15:54:21.707Z,94.05
2022-09-26T15:56:56.920Z,94.28
2022-09-26T15:59:35.414Z,94.47
2022-09-26T16:02:24.558Z,94.68
2022-09-26T16:04:57.973Z,94.89
2022-09-26T16:07:31.823Z,94.76
2022-09-26T16:10:09.469Z,94.65
2022-09-26T16:12:42.531Z,94.79
2022-09-26T16:15:19.739Z,94.92
2022-09-26T16:17:57.446Z,95.15
2022-09-26T16:20:34.188Z,95.16
2022-09-26T16:23:06.661Z,95.19
2022-09-26T16:25:54.959Z,95.15
2022-09-26T16:28:45.192Z,95.21
2022-09-26T16:31:28.821Z,95.48
2022-09-26T16:34:02.605Z,95.45
2022-09-26T16:36:36.236Z,95.40
2022-09-26T16:39:19.472Z,95.51
2022-09-26T16:42:02.645Z,95.33
2022-09-26T16:44:41.111Z,95.52
2022-09-26T16:47:35.799Z,95.45
2022-09-26T16:50:29.784Z,95.10
2022-09-26T16:53:06.679Z,95.14
2022-09-26T16:55:39.066Z,95.41
2022-09-26T16:58:16.070Z,95.17
2022-09-26T17:01:11.832Z,95.54
2022-09-26T17:03:46.884Z,95.27
2022-09-26T17:06:19.462Z,95.58
2022-09-26T17:08:52.580Z,95.50
2022-09-26T17:11:28.073Z,95.38
2022-09-26T17:14:00.570Z,95.36
2022-09-26T17:16:34.334Z,95.28
2022-09-26T17:19:06.772Z,95.63
2022-09-26T17:21:41.600Z,95.31
2022-09-26T17:24:18.086Z,95.18
2022-09-26T17:26:55.279Z,95.50
2022-09-26T17:29:31.646Z,95.59
2022-09-26T17:32:09.840Z,95.80
2022-09-26T17:34:44.604Z,95.72
2022-09-26T17:37:22.427Z,95.72
2022-09-26T17:39:55.407Z,95.63
2022-09-26T17:42:30.465Z,95.65
2022-09-26T17:45:05.473Z,95.24
2022-09-26T17:47:38.944Z,95.29
2022-09-26T17:50:18.407Z,95.78
2022-09-26T17:52:50.943Z,95.64
2022-09-26T17:55:24.813Z,95.46
2022-09-26T17:57:58.462Z,95.09
2022-09-26T18:00:40.379Z,94.97
2022-09-26T18:03:19.254Z,94.87
2022-09-26T18:05:52.105Z,95.09
2022-09-26T18:08:28.146Z,95.28
2022-09-26T18:11:03.517Z,95.26
2022-09-26T18:13:39.906Z,95.27
2022-09-26T18:16:19.152Z,95.11
2022-09-26T18:18:52.035Z,94.98
2022-09-26T18:21:26.429Z,94.84
2022-09-26T18:24:02.345Z,94.88
2022-09-26T18:26:42.159Z,94.66
2022-09-26T18:29:17.434Z,94.43
2022-09-26T18:31:49.922Z,94.38
2022-09-26T18:34:22.139Z,94.32
2022-09-26T18:36:57.165Z,94.41
2022-09-26T18:39:29.834Z,94.96
2022-09-26T18:42:09.281Z,95.12
2022-09-26T18:44:44.045Z,95.43
2022-09-26T18:47:21.902Z,95.31
2022-09-26T18:49:55.288Z,95.09
2022-09-26T18:52:31.096Z,95.32
2022-09-26T18:55:33.106Z,95.56
2022-09-26T18:58:24.148Z,95.08
2022-09-26T19:00:59.942Z,94.92
2022-09-26T19:03:36.444Z,94.66
2022-09-26T19:06:12.935Z,94.76
2022-09-26T19:08:47.325Z,94.93
2022-09-26T19:11:22.585Z,94.54
2022-09-26T19:13:57.148Z,94.60
2022-09-26T19:16:29.866Z,94.53
2022-09-26T19:19:03.054Z,94.32
2022-09-26T19:21:37.610Z,94.21
2022-09-26T19:24:20.767Z,94.24
2022-09-26T19:26:57.148Z,94.25
2022-09-26T19:29:34.046Z,93.85
2022-09-26T19:32:17.621Z,93.86
2022-09-26T19:34:54.032Z,93.70
2022-09-26T19:37:26.880Z,93.35
2022-09-26T19:39:59.537Z,93.75
2022-09-26T19:42:32.579Z,93.71
2022-09-26T19:45:05.260Z,93.63
2022-09-26T19:47:39.253Z,93.86
2022-09-26T19:50:17.344Z,93.68
2022-09-26T19:52:50.160Z,94.03
2022-09-26T19:55:26.573Z,93.94
2022-09-26T19:58:01.783Z,94.29
2022-09-26T20:00:42.532Z,94.56
2022-09-26T20:03:20.754Z,94.39
2022-09-26T20:05:53.767Z,94.48
2022-09-26T20:08:29.074Z,94.70
2022-09-26T20:11:01.649Z,94.72
2022-09-26T20:13:54.742Z,94.49
2022-09-26T20:16:28.848Z,94.64
2022-09-26T20:19:01.903Z,94.95
2022-09-26T20:21:35.352Z,94.69
2022-09-26T20:24:14.578Z,94.96
2022-09-26T20:26:50.086Z,94.90
2022-09-26T20:29:22.461Z,94.61
2022-09-26T20:31:57.390Z,94.69
2022-09-26T20:34:30.274Z,94.44
2022-09-26T20:37:02.950Z,94.15
2022-09-26T20:39:35.455Z,93.84
2022-09-26T20:42:08.925Z,93.82
2022-09-26T20:44:41.547Z,93.60
2022-09-26T20:47:19.997Z,94.01
2022-09-26T20:49:55.376Z,93.64
2022-09-26T20:52:30.239Z,93.63
2022-09-26T20:55:02.496Z,93.35
2022-09-26T20:57:35.168Z,93.40
2022-09-26T21:00:11.515Z,93.58
2022-09-26T21:02:45.032Z,93.95
2022-09-26T21:05:24.529Z,93.91
2022-09-26T21:07:58.818Z,93.80
2022-09-26T21:10:34.879Z,93.63
2022-09-26T21:13:07.200Z,93.63
2022-09-26T21:15:41.655Z,93.72
2022-09-26T21:18:25.323Z,93.41
2022-09-26T21:21:04.040Z,93.55
2022-09-26T21:24:05.572Z,93.30
2022-09-26T21:26:40.700Z,93.91
2022-09-26T21:29:17.265Z,93.58
2022-09-26T21:31:51.689Z,93.80
2022-09-26T21:34:28.681Z,93.87
2022-09-26T21:37:04.095Z,93.48
2022-09-26T21:39:39.068Z,93.54
2022-09-26T21:42:11.376Z,93.28
2022-09-26T21:44:47.844Z,93.54
2022-09-26T21:47:20.243Z,93.69
2022-09-26T21:49:54.585Z,94.10
2022-09-26T21:52:34.003Z,94.15
2022-09-26T21:55:10.534Z,94.39
2022-09-26T21:57:46.159Z,94.23
2022-09-26T22:00:18.759Z,93.81
2022-09-26T22:02:51.367Z,93.75
2022-09-26T22:05:25.758Z,94.14
2022-09-26T22:07:59.627Z,94.64
2022-09-26T22:10:34.168Z,94.46
2022-09-26T22:13:06.835Z,94.42
2022-09-26T22:15:39.407Z,94.38
2022-09-26T22:18:11.799Z,94.42
2022-09-26T22:20:45.769Z,94.14
2022-09-26T22:23:18.759Z,93.91
2022-09-26T22:25:55.529Z,93.79
2022-09-26T22:28:28.052Z,93.59
2022-09-26T22:31:03.224Z,93.94
2022-09-26T22:33:36.411Z,93.34
2022-09-26T22:36:10.041Z,93.32
2022-09-26T22:38:42.300Z,93.15
2022-09-26T22:41:14.654Z,93.39
2022-09-26T22:43:46.893Z,93.39
2022-09-26T22:46:19.267Z,93.60
2022-09-26T22:48:51.764Z,93.49
2022-09-26T22:51:24.217Z,93.38
2022-09-26T22:53:56.519Z,93.14
2022-09-26T22:56:29.992Z,92.96
2022-09-26T22:59:03.204Z,92.90
2022-09-26T23:01:35.667Z,92.96
2022-09-26T23:04:08.011Z,93.00
2022-09-26T23:06:40.439Z,93.11
2022-09-26T23:09:12.985Z,93.24
2022-09-26T23:11:47.237Z,93.07
2022-09-26T23:14:22.027Z,92.84
2022-09-26T23:16:55.164Z,92.85
2022-09-26T23:19:27.921Z,92.65
2022-09-26T23:22:03.105Z,92.58
2022-09-26T23:24:35.735Z,92.68
2022-09-26T23:27:08.282Z,92.73
2022-09-26T23:29:47.058Z,92.81
2022-09-26T23:32:20.473Z,92.81
2022-09-26T23:34:53.159Z,92.86
2022-09-26T23:37:25.601Z,93.03
2022-09-26T23:40:01.052Z,93.06
2022-09-26T23:42:37.835Z,92.87
2022-09-26T23:45:12.255Z,92.84
2022-09-26T23:47:47.574Z,92.99
2022-09-26T23:50:20.000Z,92.80
2022-09-26T23:52:52.651Z,92.90
2022-09-26T23:55:25.996Z,93.14
2022-09-26T23:58:01.173Z,92.97
